Time;durP1;ratioP1;P1;durP2;ratioP2;P2;SDS_P1;SDS_P2;PMS_P1;PMS_P2;Temp;Humidity;BMP_temperature;BMP_pressure;BME280_temperature;BME280_humidity;BME280_pressure;Samples;Min_cycle;Max_cycle;Signal;HPM_P1;HPM_P2
2023/10/23 00:00:38;;;;;;;6.50;4.47;;;11.90;99.90;;;;;;5037554;28;20009;-76
2023/10/23 00:03:04;;;;;;;7.00;4.60;;;12.00;99.90;;;;;;5042684;28;20044;-76
2023/10/23 00:05:32;;;;;;;7.77;4.43;;;12.00;99.90;;;;;;5059262;28;20049;-77
2023/10/23 00:10:25;;;;;;;7.80;5.40;;;11.90;99.90;;;;;;5060175;28;20054;-77
2023/10/23 00:12:56;;;;;;;7.90;4.57;;;11.90;99.90;;;;;;5046328;28;20021;-76
2023/10/23 00:15:24;;;;;;;11.47;4.73;;;11.90;99.90;;;;;;5059673;28;20036;-76
2023/10/23 00:17:49;;;;;;;11.57;4.70;;;11.70;99.90;;;;;;5045020;28;20037;-75
2023/10/23 00:20:15;;;;;;;7.97;4.80;;;11.90;99.90;;;;;;5054485;28;20033;-76
2023/10/23 00:22:41;;;;;;;6.00;4.33;;;11.90;99.90;;;;;;5053795;28;20237;-75
2023/10/23 00:25:07;;;;;;;7.40;4.50;;;11.80;99.90;;;;;;5040376;28;20052;-76
2023/10/23 00:27:32;;;;;;;8.00;4.00;;;11.60;99.90;;;;;;5056707;28;20079;-76
2023/10/23 00:30:01;;;;;;;10.23;4.33;;;11.70;99.90;;;;;;5054858;28;20024;-76
2023/10/23 00:32:27;;;;;;;10.27;3.67;;;11.70;99.90;;;;;;5042553;28;20021;-76
2023/10/23 00:34:52;;;;;;;5.70;3.50;;;11.70;99.90;;;;;;5042229;28;20025;-77
2023/10/23 00:37:21;;;;;;;6.07;3.87;;;11.60;99.90;;;;;;5041823;28;20093;-77
2023/10/23 00:39:48;;;;;;;6.77;4.17;;;11.60;99.90;;;;;;5041890;28;20014;-76
2023/10/23 00:42:22;;;;;;;7.07;4.20;;;11.60;99.90;;;;;;5042687;28;20010;-76
2023/10/23 00:44:47;;;;;;;6.73;3.70;;;11.50;99.90;;;;;;5055007;28;20037;-75
2023/10/23 00:47:21;;;;;;;5.73;3.67;;;11.50;99.90;;;;;;5054761;28;20014;-77
2023/10/23 00:49:57;;;;;;;5.17;3.67;;;11.50;99.90;;;;;;5055012;28;20017;-77
2023/10/23 00:52:23;;;;;;;6.53;4.03;;;11.50;99.90;;;;;;5057832;28;20017;-76
2023/10/23 00:54:50;;;;;;;7.40;3.80;;;11.50;99.90;;;;;;5042658;28;20045;-76
2023/10/23 00:57:16;;;;;;;7.67;4.03;;;11.50;99.90;;;;;;5054575;28;20225;-77
2023/10/23 00:59:45;;;;;;;8.97;3.93;;;11.50;99.90;;;;;;5033665;28;20048;-77
2023/10/23 01:02:11;;;;;;;10.27;4.20;;;;;;;;;;5052594;28;20043;-76
2023/10/23 01:04:38;;;;;;;6.77;4.27;;;;;;;;;;5052994;28;20048;-77
2023/10/23 01:07:06;;;;;;;7.63;4.67;;;11.40;99.90;;;;;;5034262;28;20029;-77
2023/10/23 01:09:34;;;;;;;6.63;4.10;;;11.30;99.90;;;;;;5054904;28;20043;-77
2023/10/23 01:12:00;;;;;;;8.40;5.20;;;11.10;99.90;;;;;;5031965;28;20040;-76
2023/10/23 01:14:26;;;;;;;8.83;4.53;;;11.00;99.90;;;;;;5054418;28;20025;-77
2023/10/23 01:16:54;;;;;;;6.07;3.53;;;11.20;99.90;;;;;;5036827;28;20014;-77
2023/10/23 01:19:22;;;;;;;5.73;3.77;;;11.10;99.90;;;;;;5053068;28;20021;-77
2023/10/23 01:21:48;;;;;;;6.07;3.70;;;11.10;99.90;;;;;;5053709;28;20026;-76
2023/10/23 01:24:26;;;;;;;4.80;3.57;;;10.90;99.90;;;;;;5036511;28;20021;-76
2023/10/23 01:26:56;;;;;;;6.37;3.77;;;10.90;99.90;;;;;;5053626;28;20040;-76
2023/10/23 01:29:25;;;;;;;5.80;3.70;;;10.80;99.90;;;;;;5054190;28;20112;-78
2023/10/23 01:31:53;;;;;;;4.67;3.37;;;10.80;99.90;;;;;;5032858;28;20035;-76
2023/10/23 01:34:21;;;;;;;5.73;2.90;;;10.90;99.90;;;;;;5054075;28;20029;-76
2023/10/23 01:36:52;;;;;;;7.43;3.87;;;10.70;99.90;;;;;;5033547;28;20030;-76
2023/10/23 01:39:17;;;;;;;6.20;3.63;;;10.50;99.90;;;;;;5036988;28;20022;-76
2023/10/23 01:41:51;;;;;;;11.80;3.80;;;10.70;99.90;;;;;;5054121;28;20024;-77
2023/10/23 01:44:18;;;;;;;10.60;3.57;;;10.60;99.90;;;;;;5037503;28;20009;-76
2023/10/23 01:46:44;;;;;;;5.43;3.03;;;10.60;99.90;;;;;;5036471;28;20125;-76
2023/10/23 01:49:10;;;;;;;5.93;3.03;;;10.70;99.90;;;;;;5036559;28;20047;-78
2023/10/23 01:51:38;;;;;;;6.73;3.07;;;10.60;99.90;;;;;;5037082;28;20029;-77
2023/10/23 01:54:04;;;;;;;5.00;2.83;;;10.50;99.90;;;;;;5035999;28;20239;-76
2023/10/23 01:56:32;;;;;;;5.93;3.03;;;10.50;99.90;;;;;;5036511;28;20033;-76
2023/10/23 01:58:57;;;;;;;6.83;3.17;;;10.50;99.90;;;;;;5034433;28;20017;-77
2023/10/23 02:01:26;;;;;;;6.63;3.10;;;10.50;99.90;;;;;;5036985;28;20035;-76
2023/10/23 02:04:06;;;;;;;8.97;3.07;;;10.40;99.90;;;;;;5036550;28;20022;-76
2023/10/23 02:06:31;;;;;;;5.07;2.50;;;10.40;99.90;;;;;;5052454;28;20100;-77
2023/10/23 02:09:03;;;;;;;10.30;3.47;;;10.40;99.90;;;;;;5036434;28;20040;-77
2023/10/23 02:11:29;;;;;;;4.70;2.83;;;10.30;99.90;;;;;;5054460;28;20053;-77
2023/10/23 02:13:55;;;;;;;5.77;3.07;;;10.30;99.90;;;;;;5052107;28;20215;-75
2023/10/23 02:16:20;;;;;;;3.70;2.70;;;10.30;99.90;;;;;;5053891;28;20033;-79
2023/10/23 02:18:48;;;;;;;9.13;3.63;;;10.40;99.90;;;;;;5036040;28;20021;-76
2023/10/23 02:21:19;;;;;;;7.13;3.17;;;10.00;99.90;;;;;;5036090;28;20013;-77
2023/10/23 02:23:49;;;;;;;6.50;2.80;;;10.10;99.90;;;;;;5035774;28;20029;-76
2023/10/23 02:26:17;;;;;;;6.27;2.70;;;10.20;99.90;;;;;;5036509;28;20045;-78
2023/10/23 02:28:47;;;;;;;6.07;2.43;;;10.00;99.90;;;;;;5052532;28;20021;-78
2023/10/23 02:31:13;;;;;;;6.87;3.33;;;10.00;99.90;;;;;;5035950;28;20089;-78
2023/10/23 02:33:39;;;;;;;6.27;2.83;;;10.10;99.90;;;;;;5053307;28;20014;-78
2023/10/23 02:36:15;;;;;;;3.87;2.53;;;10.00;99.90;;;;;;5036315;28;20032;-76
2023/10/23 02:38:42;;;;;;;10.20;3.43;;;9.90;99.90;;;;;;5052261;28;20029;-76
2023/10/23 02:41:08;;;;;;;6.63;2.67;;;9.90;99.90;;;;;;5036137;28;20114;-76
2023/10/23 02:43:34;;;;;;;6.70;3.00;;;9.90;99.90;;;;;;5051434;28;20037;-76
2023/10/23 02:46:06;;;;;;;4.67;2.80;;;9.80;99.90;;;;;;5045203;28;20324;-76
2023/10/23 02:48:32;;;;;;;6.93;3.05;;;9.80;99.90;;;;;;5060265;28;20022;-76
2023/10/23 02:50:58;;;;;;;7.17;3.07;;;9.70;99.90;;;;;;5057108;28;20045;-76
2023/10/23 02:53:26;;;;;;;5.70;2.27;;;9.70;99.90;;;;;;5044389;28;20021;-77
2023/10/23 02:55:52;;;;;;;4.37;2.43;;;9.60;99.90;;;;;;5046881;28;20069;-78
2023/10/23 02:58:21;;;;;;;6.77;2.40;;;9.60;99.90;;;;;;5044676;28;20021;-76
2023/10/23 03:00:47;;;;;;;3.50;2.10;;;9.60;99.90;;;;;;5056676;28;20043;-76
2023/10/23 03:03:12;;;;;;;10.37;2.43;;;9.60;99.90;;;;;;5057194;28;20195;-77
2023/10/23 03:05:41;;;;;;;7.70;2.83;;;9.60;99.90;;;;;;5046807;28;20042;-77
2023/10/23 03:08:06;;;;;;;11.37;3.70;;;9.60;99.90;;;;;;5044569;28;20022;-76
2023/10/23 03:10:40;;;;;;;8.83;2.70;;;9.60;99.90;;;;;;5043452;28;20048;-76
2023/10/23 03:13:05;;;;;;;5.47;2.93;;;9.60;99.90;;;;;;5055709;28;20018;-76
2023/10/23 03:15:33;;;;;;;4.93;2.53;;;9.50;99.90;;;;;;5044520;28;20021;-76
2023/10/23 03:18:03;;;;;;;5.37;2.50;;;9.60;99.90;;;;;;5042804;28;20025;-76
2023/10/23 03:20:37;;;;;;;9.73;3.10;;;9.50;99.90;;;;;;5044743;28;20018;-77
2023/10/23 03:23:04;;;;;;;5.10;3.07;;;9.50;99.90;;;;;;5043567;28;20018;-78
2023/10/23 03:25:35;;;;;;;7.43;2.90;;;9.40;99.90;;;;;;5057592;28;20049;-77
2023/10/23 03:28:08;;;;;;;5.80;2.40;;;9.50;99.90;;;;;;5044772;28;20045;-79
2023/10/23 03:30:37;;;;;;;9.03;2.60;;;9.50;99.90;;;;;;5044006;28;20029;-76
2023/10/23 03:33:08;;;;;;;5.33;2.27;;;9.50;99.90;;;;;;5040938;28;20025;-79
2023/10/23 03:35:35;;;;;;;5.47;2.97;;;9.40;99.90;;;;;;5058985;28;20017;-77
2023/10/23 03:38:06;;;;;;;6.27;3.47;;;9.40;99.90;;;;;;5056019;28;20029;-77
2023/10/23 03:40:32;;;;;;;6.03;3.20;;;9.20;99.90;;;;;;5056990;28;20013;-76
2023/10/23 03:42:58;;;;;;;4.17;3.10;;;9.40;99.90;;;;;;5043134;28;20220;-76
2023/10/23 03:45:28;;;;;;;4.20;2.70;;;9.50;99.90;;;;;;5043788;28;20041;-76
2023/10/23 03:47:56;;;;;;;8.40;2.87;;;9.30;99.90;;;;;;5045118;28;20026;-77
2023/10/23 03:50:30;;;;;;;7.87;2.93;;;9.40;99.90;;;;;;5043079;28;20018;-78
2023/10/23 03:52:58;;;;;;;8.00;2.93;;;9.30;99.90;;;;;;5059519;28;20327;-78
2023/10/23 03:55:26;;;;;;;8.27;3.67;;;9.40;99.90;;;;;;5049823;28;20094;-76
2023/10/23 03:57:51;;;;;;;5.07;3.03;;;9.20;99.90;;;;;;5042350;28;20009;-76
2023/10/23 04:00:20;;;;;;;9.97;3.50;;;9.30;99.90;;;;;;5055869;28;20057;-79
2023/10/23 04:02:48;;;;;;;6.17;3.63;;;9.30;99.90;;;;;;5054810;28;20047;-76
2023/10/23 04:05:14;;;;;;;7.33;3.90;;;9.30;99.90;;;;;;5039679;28;20033;-77
2023/10/23 04:07:44;;;;;;;4.23;2.73;;;9.20;99.90;;;;;;5043275;28;20024;-76
2023/10/23 04:10:21;;;;;;;9.90;3.13;;;9.20;99.90;;;;;;5042073;28;20033;-78
2023/10/23 04:12:47;;;;;;;8.20;3.20;;;9.10;99.90;;;;;;5055629;28;20048;-76
2023/10/23 04:15:12;;;;;;;4.43;2.77;;;9.20;99.90;;;;;;5042619;28;20022;-78
2023/10/23 04:17:50;;;;;;;7.90;3.50;;;9.20;99.90;;;;;;5043376;28;20064;-77
2023/10/23 04:20:19;;;;;;;8.03;3.40;;;9.10;99.90;;;;;;5055071;28;20040;-77
2023/10/23 04:22:45;;;;;;;5.67;2.90;;;9.10;99.90;;;;;;5041514;28;20097;-76
2023/10/23 04:25:13;;;;;;;5.73;2.80;;;9.20;99.90;;;;;;5042732;28;20056;-78
2023/10/23 04:27:41;;;;;;;8.13;2.80;;;9.20;99.90;;;;;;5041973;28;20029;-78
2023/10/23 04:30:10;;;;;;;9.40;3.53;;;9.20;99.90;;;;;;5042180;28;20042;-76
2023/10/23 04:32:38;;;;;;;8.67;3.70;;;9.10;99.90;;;;;;5042914;28;20013;-77
2023/10/23 04:35:09;;;;;;;7.20;3.20;;;9.10;99.90;;;;;;5042502;28;20053;-76
2023/10/23 04:37:38;;;;;;;6.27;3.47;;;9.00;99.90;;;;;;5041994;28;20026;-76
2023/10/23 04:40:04;;;;;;;8.07;3.63;;;8.90;99.90;;;;;;5053877;28;20047;-77
2023/10/23 04:42:31;;;;;;;4.43;3.23;;;8.90;99.90;;;;;;5039643;28;20034;-78
2023/10/23 04:44:57;;;;;;;9.10;3.30;;;9.00;99.90;;;;;;5059672;28;20041;-81
2023/10/23 04:47:24;;;;;;;7.13;3.50;;;8.90;99.90;;;;;;5051242;28;20029;-76
2023/10/23 04:49:55;;;;;;;6.77;4.07;;;8.90;99.90;;;;;;5042340;28;20041;-77
2023/10/23 04:52:23;;;;;;;10.23;3.40;;;8.70;99.90;;;;;;5067811;28;20025;-77
2023/10/23 04:54:54;;;;;;;7.20;3.53;;;8.80;99.90;;;;;;5065303;28;20036;-77
2023/10/23 04:57:22;;;;;;;8.80;3.70;;;8.80;99.90;;;;;;5041813;28;20017;-79
2023/10/23 04:59:50;;;;;;;7.07;3.40;;;8.70;99.90;;;;;;5042431;28;20044;-79
2023/10/23 05:02:18;;;;;;;6.60;3.83;;;8.70;99.90;;;;;;5041889;28;20022;-78
2023/10/23 05:04:46;;;;;;;7.60;3.70;;;8.70;99.90;;;;;;5042014;28;20021;-77
2023/10/23 05:07:12;;;;;;;7.63;3.53;;;8.70;99.90;;;;;;5041175;28;20113;-76
2023/10/23 05:09:38;;;;;;;7.43;3.67;;;8.60;99.90;;;;;;5036011;28;20026;-80
2023/10/23 05:12:06;;;;;;;9.83;3.60;;;8.70;99.90;;;;;;5028250;28;20030;-79
2023/10/23 05:14:34;;;;;;;8.23;3.67;;;8.70;99.90;;;;;;5056400;28;20037;-79
2023/10/23 05:17:03;;;;;;;8.40;3.27;;;8.70;99.90;;;;;;5051368;28;20030;-79
2023/10/23 05:19:31;;;;;;;5.30;2.93;;;8.70;99.90;;;;;;5054712;28;20045;-80
2023/10/23 05:21:59;;;;;;;6.27;3.30;;;8.50;99.90;;;;;;5057792;28;20029;-83
2023/10/23 05:24:28;;;;;;;6.97;3.40;;;8.60;99.90;;;;;;5053721;28;20010;-77
2023/10/23 05:26:54;;;;;;;6.97;3.37;;;8.60;99.90;;;;;;5034111;28;20091;-80
2023/10/23 05:29:19;;;;;;;9.13;3.57;;;8.60;99.90;;;;;;5041559;28;20021;-78
2023/10/23 05:31:48;;;;;;;7.10;3.67;;;8.50;99.90;;;;;;5058266;28;20029;-81
2023/10/23 05:34:14;;;;;;;6.80;3.07;;;8.50;99.90;;;;;;5041819;28;20048;-79
2023/10/23 05:36:42;;;;;;;6.97;3.47;;;8.50;99.90;;;;;;5041153;28;20009;-78
2023/10/23 05:39:10;;;;;;;7.90;4.43;;;8.50;99.90;;;;;;5041153;28;20113;-81
2023/10/23 05:41:36;;;;;;;9.53;4.00;;;8.40;99.90;;;;;;5058546;28;20029;-79
2023/10/23 05:44:04;;;;;;;16.10;5.20;;;8.20;99.90;;;;;;5041501;28;20056;-81
2023/10/23 05:46:32;;;;;;;5.87;3.93;;;8.40;99.90;;;;;;5041028;28;20017;-77
2023/10/23 05:48:58;;;;;;;7.57;4.57;;;8.40;99.90;;;;;;5041129;28;20037;-80
2023/10/23 05:51:26;;;;;;;11.90;4.73;;;8.40;99.90;;;;;;5051373;28;20028;-81
2023/10/23 05:53:56;;;;;;;6.77;4.33;;;8.30;99.90;;;;;;5044976;28;20095;-76
2023/10/23 05:56:22;;;;;;;8.97;4.20;;;8.40;99.90;;;;;;5041019;28;20028;-80
2023/10/23 05:58:50;;;;;;;5.73;3.97;;;8.30;99.90;;;;;;5044914;28;20014;-82
2023/10/23 06:01:18;;;;;;;6.10;4.10;;;8.30;99.90;;;;;;5040642;28;20053;-78
2023/10/23 06:03:44;;;;;;;9.37;4.30;;;8.10;99.90;;;;;;5044339;28;20005;-80
2023/10/23 06:06:12;;;;;;;9.43;4.53;;;8.30;99.90;;;;;;5037129;28;20026;-77
2023/10/23 06:08:38;;;;;;;9.60;4.43;;;8.20;99.90;;;;;;5056838;28;20022;-79
2023/10/23 06:11:08;;;;;;;8.37;4.20;;;8.20;99.90;;;;;;5040798;28;20025;-81
2023/10/23 06:13:36;;;;;;;15.50;4.97;;;8.10;99.90;;;;;;5044322;28;20355;-77
2023/10/23 06:16:05;;;;;;;13.70;5.60;;;8.10;99.90;;;;;;5040589;28;20037;-78
2023/10/23 06:18:35;;;;;;;11.73;4.87;;;8.00;99.90;;;;;;5039459;28;20029;-80
2023/10/23 06:21:07;;;;;;;11.03;5.00;;;8.10;99.90;;;;;;5052735;28;20029;-77
2023/10/23 06:23:36;;;;;;;10.63;4.88;;;8.10;99.90;;;;;;5039799;28;20041;-79
2023/10/23 06:26:03;;;;;;;6.93;4.20;;;8.10;99.90;;;;;;5052516;28;20037;-78
2023/10/23 06:28:28;;;;;;;8.70;4.87;;;8.00;99.90;;;;;;5040800;28;20025;-76
2023/10/23 06:31:04;;;;;;;10.60;4.77;;;8.10;99.90;;;;;;5039429;28;20021;-76
2023/10/23 06:33:30;;;;;;;11.23;4.70;;;8.00;99.90;;;;;;5051618;28;20025;-78
2023/10/23 06:35:57;;;;;;;13.93;4.83;;;8.10;99.90;;;;;;5040571;28;20041;-79
2023/10/23 06:38:25;;;;;;;12.33;4.17;;;8.00;99.90;;;;;;5035730;28;20014;-77
2023/10/23 06:40:51;;;;;;;13.50;4.17;;;8.20;99.90;;;;;;5052553;28;21387;-77
2023/10/23 06:43:17;;;;;;;8.50;4.10;;;8.20;99.90;;;;;;5040223;28;20089;-77
2023/10/23 06:45:50;;;;;;;13.67;4.50;;;8.20;99.90;;;;;;5041233;28;20042;-76
2023/10/23 06:48:17;;;;;;;12.37;4.63;;;8.30;99.90;;;;;;5034160;28;20021;-76
2023/10/23 06:50:49;;;;;;;9.47;4.87;;;8.30;99.90;;;;;;5050015;28;20029;-80
2023/10/23 06:53:15;;;;;;;30.48;6.13;;;8.40;99.90;;;;;;5036209;28;20022;-76
2023/10/23 06:55:54;;;;;;;9.63;4.60;;;8.40;99.90;;;;;;5035401;28;20060;-76
2023/10/23 06:58:37;;;;;;;7.73;4.20;;;8.40;99.90;;;;;;5051207;28;20018;-78
2023/10/23 07:01:09;;;;;;;7.10;4.30;;;8.50;99.90;;;;;;5034481;28;20218;-75
2023/10/23 07:03:36;;;;;;;10.27;4.63;;;8.50;99.90;;;;;;5035170;28;20085;-76
2023/10/23 07:06:07;;;;;;;18.13;5.73;;;8.50;99.90;;;;;;5035094;28;20068;-78
2023/10/23 07:08:34;;;;;;;13.30;4.83;;;8.60;99.90;;;;;;5053691;28;20021;-77
2023/10/23 07:11:03;;;;;;;15.40;6.03;;;8.60;99.90;;;;;;5034715;28;20030;-78
2023/10/23 07:13:38;;;;;;;12.87;5.27;;;8.70;99.90;;;;;;5052563;28;20017;-79
2023/10/23 07:16:06;;;;;;;15.33;5.43;;;8.70;99.90;;;;;;5035281;28;20051;-78
2023/10/23 07:18:39;;;;;;;12.30;6.00;;;8.80;99.90;;;;;;5035512;28;20048;-75
2023/10/23 07:21:05;;;;;;;18.00;5.90;;;8.90;99.90;;;;;;5035858;28;20056;-77
2023/10/23 07:23:31;;;;;;;11.57;5.23;;;9.00;99.90;;;;;;5052432;28;20041;-77
2023/10/23 07:26:14;;;;;;;20.13;6.50;;;9.00;99.90;;;;;;5052611;28;20036;-77
2023/10/23 07:28:40;;;;;;;13.65;6.60;;;9.10;99.90;;;;;;5032572;28;20033;-77
2023/10/23 07:31:11;;;;;;;17.27;7.17;;;9.20;99.90;;;;;;5034409;28;20089;-76
2023/10/23 07:33:37;;;;;;;11.73;7.07;;;9.20;99.90;;;;;;5038689;28;20052;-77
2023/10/23 07:36:13;;;;;;;16.00;8.13;;;9.20;99.90;;;;;;5037279;28;20041;-75
2023/10/23 07:38:43;;;;;;;11.73;7.53;;;9.20;99.90;;;;;;5039104;28;20025;-80
2023/10/23 07:41:13;;;;;;;12.03;7.50;;;9.30;99.90;;;;;;5036593;28;20060;-79
2023/10/23 07:43:43;;;;;;;16.50;8.17;;;9.30;99.90;;;;;;5055248;28;20021;-76
2023/10/23 07:46:12;;;;;;;12.43;8.13;;;9.40;99.90;;;;;;5059594;28;20048;-76
2023/10/23 07:48:38;;;;;;;13.00;7.50;;;9.30;99.90;;;;;;5054751;28;20014;-76
2023/10/23 07:51:04;;;;;;;18.03;7.97;;;9.40;99.90;;;;;;5037234;28;20025;-75
2023/10/23 07:53:35;;;;;;;15.10;8.27;;;9.50;99.90;;;;;;5055532;28;20287;-78
2023/10/23 07:56:12;;;;;;;14.70;8.37;;;9.60;99.90;;;;;;5036757;28;20554;-76
2023/10/23 07:58:39;;;;;;;13.27;7.97;;;9.60;99.90;;;;;;5037096;28;20052;-78
2023/10/23 08:01:07;;;;;;;15.43;8.57;;;9.60;99.90;;;;;;5039149;28;20044;-76
2023/10/23 08:06:19;;;;;;;15.80;9.33;;;9.70;99.90;;;;;;5055487;28;20037;-76
2023/10/23 08:08:56;;;;;;;21.90;11.00;;;9.70;99.90;;;;;;5054890;28;20056;-77
2023/10/23 08:11:24;;;;;;;20.17;10.60;;;9.70;99.90;;;;;;5038519;28;20014;-76
2023/10/23 08:13:52;;;;;;;19.43;10.70;;;9.80;99.90;;;;;;5035909;28;20017;-76
2023/10/23 08:16:18;;;;;;;23.37;10.10;;;10.00;99.90;;;;;;5038481;28;20085;-76
2023/10/23 08:18:45;;;;;;;24.60;10.50;;;10.00;99.90;;;;;;5038467;28;20040;-76
2023/10/23 08:21:16;;;;;;;16.87;10.30;;;9.90;99.90;;;;;;5055525;28;20021;-77
2023/10/23 08:23:46;;;;;;;17.23;9.67;;;10.20;99.90;;;;;;5058489;28;20029;-75
2023/10/23 08:26:17;;;;;;;20.93;10.67;;;10.20;99.90;;;;;;5059236;28;20048;-76
2023/10/23 08:28:45;;;;;;;17.40;10.47;;;10.30;99.90;;;;;;5038205;28;20013;-76
2023/10/23 08:31:11;;;;;;;15.47;9.33;;;10.30;99.90;;;;;;5054696;28;20029;-77
2023/10/23 08:33:36;;;;;;;17.50;10.00;;;10.20;99.90;;;;;;5038510;28;20043;-76
2023/10/23 08:36:03;;;;;;;18.70;10.20;;;10.20;99.90;;;;;;5038392;28;20052;-77
2023/10/23 08:38:28;;;;;;;18.77;10.10;;;10.30;99.90;;;;;;5054894;28;20018;-78
2023/10/23 08:40:55;;;;;;;15.53;8.90;;;10.30;99.90;;;;;;5037002;28;20024;-77
2023/10/23 08:43:21;;;;;;;16.30;9.07;;;10.30;99.90;;;;;;5039431;28;20013;-77
2023/10/23 08:45:48;;;;;;;17.13;9.50;;;10.30;99.90;;;;;;5043479;28;20045;-77
2023/10/23 08:48:14;;;;;;;18.13;9.67;;;10.30;99.90;;;;;;5041574;28;20040;-76
2023/10/23 08:50:43;;;;;;;16.53;9.73;;;10.30;99.90;;;;;;5044067;28;20025;-76
2023/10/23 08:53:10;;;;;;;15.47;9.20;;;10.40;99.90;;;;;;5054463;28;20040;-76
2023/10/23 08:55:39;;;;;;;19.20;10.27;;;10.40;99.90;;;;;;5054903;28;20029;-76
2023/10/23 08:58:05;;;;;;;17.40;10.77;;;10.40;99.90;;;;;;5041835;28;20030;-76
2023/10/23 09:00:31;;;;;;;15.77;9.83;;;10.50;99.90;;;;;;5042701;28;20038;-76
2023/10/23 09:02:58;;;;;;;19.83;9.50;;;10.40;99.90;;;;;;5041501;28;20052;-77
2023/10/23 09:05:24;;;;;;;15.30;9.33;;;10.60;99.90;;;;;;5060653;28;20052;-77
2023/10/23 09:07:52;;;;;;;11.60;8.17;;;10.70;99.90;;;;;;5041118;28;20014;-75
2023/10/23 09:10:18;;;;;;;17.23;8.03;;;10.70;99.90;;;;;;5042331;28;20017;-75
2023/10/23 09:12:44;;;;;;;15.03;8.77;;;10.70;99.90;;;;;;5041856;28;20052;-76
2023/10/23 09:15:24;;;;;;;13.17;8.37;;;10.70;99.90;;;;;;5042671;28;20026;-76
2023/10/23 09:17:51;;;;;;;13.17;8.73;;;10.80;99.90;;;;;;5042759;28;20036;-77
2023/10/23 09:20:16;;;;;;;14.00;7.67;;;10.80;99.90;;;;;;5054761;28;20025;-77
2023/10/23 09:22:49;;;;;;;12.43;7.13;;;10.90;99.90;;;;;;5053792;28;20052;-76
2023/10/23 09:25:15;;;;;;;12.57;7.30;;;10.80;99.90;;;;;;5039781;28;20052;-75
2023/10/23 09:27:46;;;;;;;13.20;7.23;;;10.90;99.90;;;;;;5051969;28;20029;-77
2023/10/23 09:30:21;;;;;;;14.17;7.00;;;10.90;99.90;;;;;;5053528;28;20105;-77
2023/10/23 09:32:55;;;;;;;14.17;7.00;;;10.90;99.90;;;;;;5052886;28;20022;-75
2023/10/23 09:35:26;;;;;;;8.83;6.33;;;10.90;99.90;;;;;;5054304;28;20048;-76
2023/10/23 09:37:55;;;;;;;9.63;6.67;;;10.90;99.90;;;;;;5041000;28;20057;-76
2023/10/23 09:40:22;;;;;;;12.00;6.97;;;10.90;99.90;;;;;;5057071;28;20038;-75
2023/10/23 09:42:54;;;;;;;11.80;7.10;;;11.10;99.90;;;;;;5040423;28;20029;-76
2023/10/23 09:45:23;;;;;;;9.40;6.85;;;11.10;99.90;;;;;;5038197;28;20040;-75
2023/10/23 09:47:51;;;;;;;12.07;6.63;;;11.10;99.90;;;;;;5051932;28;20056;-75
2023/10/23 09:50:16;;;;;;;12.73;6.33;;;11.20;99.90;;;;;;5057775;28;20043;-77
2023/10/23 09:52:44;;;;;;;12.20;8.30;;;11.20;99.90;;;;;;5053852;28;20025;-76
2023/10/23 09:55:11;;;;;;;13.70;8.00;;;11.20;99.90;;;;;;5039587;28;20018;-75
2023/10/23 09:57:40;;;;;;;11.53;6.83;;;11.30;99.90;;;;;;5052506;28;21164;-76
2023/10/23 10:00:14;;;;;;;12.30;7.33;;;11.40;99.90;;;;;;5040568;28;20045;-75
2023/10/23 10:02:46;;;;;;;10.07;6.63;;;11.40;99.90;;;;;;5055054;28;20107;-74
2023/10/23 10:05:34;;;;;;;11.93;6.53;;;11.50;99.90;;;;;;5038412;28;20044;-76
2023/10/23 10:08:03;;;;;;;9.43;6.53;;;11.50;99.90;;;;;;5039686;28;20033;-76
2023/10/23 10:10:32;;;;;;;13.13;7.17;;;11.50;99.90;;;;;;5051459;28;20030;-76
2023/10/23 10:13:00;;;;;;;12.87;6.73;;;11.60;99.90;;;;;;5039493;28;20105;-76
2023/10/23 10:15:27;;;;;;;9.73;5.97;;;11.60;99.90;;;;;;5039509;28;20105;-76
2023/10/23 10:17:52;;;;;;;11.03;6.47;;;11.60;99.90;;;;;;5033994;28;20022;-76
2023/10/23 10:20:22;;;;;;;13.67;6.30;;;11.70;99.90;;;;;;5037783;28;20028;-76
2023/10/23 10:23:01;;;;;;;10.37;5.87;;;11.70;99.90;;;;;;5039802;28;20013;-75
2023/10/23 10:25:28;;;;;;;9.83;5.20;;;11.70;99.90;;;;;;5052073;28;20052;-76
2023/10/23 10:27:58;;;;;;;6.57;4.97;;;11.70;99.90;;;;;;5037855;28;20041;-76
2023/10/23 10:30:42;;;;;;;9.93;5.23;;;11.80;99.90;;;;;;5052037;28;20026;-75
2023/10/23 10:33:12;;;;;;;10.17;5.43;;;11.90;99.90;;;;;;5037085;28;20101;-77
2023/10/23 10:35:40;;;;;;;14.07;6.03;;;12.10;99.90;;;;;;5037956;28;20047;-76
2023/10/23 10:38:12;;;;;;;7.40;4.32;;;12.10;99.90;;;;;;5037267;28;20065;-76
2023/10/23 10:41:00;;;;;;;8.20;4.30;;;12.10;99.90;;;;;;5037039;28;20036;-76
2023/10/23 10:43:41;;;;;;;9.93;4.03;;;12.00;99.90;;;;;;5055160;28;20026;-76
2023/10/23 10:46:22;;;;;;;7.00;3.90;;;12.30;99.90;;;;;;5040185;28;20059;-76
2023/10/23 10:48:52;;;;;;;7.40;3.72;;;12.30;99.90;;;;;;5027272;28;20021;-76
2023/10/23 10:51:27;;;;;;;5.78;3.35;;;12.30;99.90;;;;;;5057416;28;20009;-76
2023/10/23 10:54:03;;;;;;;6.45;3.78;;;12.50;99.90;;;;;;5043704;28;20044;-78
2023/10/23 10:56:32;;;;;;;9.45;3.33;;;12.40;99.90;;;;;;5041389;28;20090;-78
2023/10/23 10:59:07;;;;;;;8.07;3.80;;;12.50;99.90;;;;;;5033014;28;20030;-76
2023/10/23 11:01:35;;;;;;;6.85;4.10;;;12.40;99.90;;;;;;5040323;28;20089;-75
2023/10/23 11:04:01;;;;;;;6.57;3.08;;;12.70;99.90;;;;;;5040104;28;20013;-76
2023/10/23 11:06:32;;;;;;;8.57;3.10;;;12.60;99.90;;;;;;5059003;28;20052;-76
2023/10/23 11:09:00;;;;;;;4.20;3.15;;;12.40;99.90;;;;;;5059148;28;20053;-76
2023/10/23 11:11:29;;;;;;;6.38;3.20;;;12.70;99.90;;;;;;5057238;28;20077;-76
2023/10/23 11:13:54;;;;;;;3.85;2.65;;;12.70;99.90;;;;;;5041367;28;20026;-76
2023/10/23 11:16:21;;;;;;;4.90;2.47;;;12.60;99.90;;;;;;5043766;28;20020;-75
2023/10/23 11:18:47;;;;;;;9.00;2.33;;;12.80;99.90;;;;;;5043978;28;20010;-76
2023/10/23 11:21:13;;;;;;;6.18;2.25;;;12.80;99.90;;;;;;5043994;28;20017;-76
2023/10/23 11:23:42;;;;;;;5.05;2.45;;;12.80;99.90;;;;;;5043613;28;20022;-76
2023/10/23 11:26:08;;;;;;;4.20;2.42;;;12.90;99.90;;;;;;5043193;28;20057;-77
2023/10/23 11:28:37;;;;;;;9.00;2.55;;;12.90;99.90;;;;;;5043522;28;20006;-77
2023/10/23 11:31:03;;;;;;;5.03;2.22;;;13.00;99.90;;;;;;5043632;28;20010;-77
2023/10/23 11:33:32;;;;;;;5.25;2.60;;;13.10;99.90;;;;;;5043681;28;20022;-76
2023/10/23 11:35:57;;;;;;;6.65;2.33;;;13.00;99.90;;;;;;5043532;28;20052;-76
2023/10/23 11:38:24;;;;;;;7.03;2.47;;;13.10;99.90;;;;;;5043718;28;20006;-76
2023/10/23 11:40:53;;;;;;;4.80;1.98;;;13.20;99.90;;;;;;5043489;28;20085;-75
2023/10/23 11:43:24;;;;;;;11.95;2.83;;;13.20;99.90;;;;;;5043029;28;20017;-76
2023/10/23 11:45:50;;;;;;;3.33;1.87;;;13.10;99.90;;;;;;5043566;28;20028;-76
2023/10/23 11:48:16;;;;;;;7.50;2.45;;;13.10;99.90;;;;;;5043249;28;20010;-76
2023/10/23 11:50:45;;;;;;;7.68;2.63;;;13.10;99.90;;;;;;5043104;28;20021;-76
2023/10/23 11:53:14;;;;;;;5.03;2.40;;;13.20;99.90;;;;;;5043278;28;20030;-76
2023/10/23 11:55:45;;;;;;;5.40;2.97;;;13.20;99.90;;;;;;5059449;28;20014;-75
2023/10/23 11:58:13;;;;;;;4.10;2.20;;;13.20;99.90;;;;;;5043175;28;20037;-76
2023/10/23 12:00:43;;;;;;;6.00;2.50;;;13.20;99.90;;;;;;5063824;28;20040;-76
2023/10/23 12:03:08;;;;;;;4.47;1.85;;;13.20;99.90;;;;;;5050471;28;20018;-76
2023/10/23 12:05:34;;;;;;;4.13;1.70;;;13.20;99.90;;;;;;5042808;28;20048;-76
2023/10/23 12:08:00;;;;;;;3.83;1.80;;;13.20;99.90;;;;;;5060025;28;20010;-76
2023/10/23 12:10:27;;;;;;;4.65;1.50;;;13.20;99.90;;;;;;5041940;28;20050;-77
2023/10/23 12:12:54;;;;;;;3.03;1.63;;;13.20;99.90;;;;;;5043001;28;20006;-76
2023/10/23 12:15:23;;;;;;;4.93;1.83;;;13.20;99.90;;;;;;5042671;28;20124;-76
2023/10/23 12:17:51;;;;;;;3.72;1.75;;;13.20;99.90;;;;;;5049399;28;20021;-77
2023/10/23 12:20:21;;;;;;;5.32;1.35;;;13.30;99.90;;;;;;5053116;28;20033;-77
2023/10/23 12:22:47;;;;;;;4.88;1.92;;;13.20;99.90;;;;;;5038598;28;20097;-76
2023/10/23 12:25:16;;;;;;;2.85;1.90;;;13.30;99.90;;;;;;5037970;28;20046;-76
2023/10/23 12:27:44;;;;;;;4.45;1.65;;;13.30;99.90;;;;;;5038895;28;20040;-76
2023/10/23 12:30:18;;;;;;;3.15;1.60;;;13.40;99.90;;;;;;5054477;28;20020;-76
2023/10/23 12:32:46;;;;;;;2.47;1.48;;;13.40;99.90;;;;;;5039243;28;20092;-76
2023/10/23 12:35:13;;;;;;;5.10;1.38;;;13.40;99.90;;;;;;5052308;28;20017;-76
2023/10/23 12:37:39;;;;;;;5.80;1.45;;;13.50;99.90;;;;;;5037617;28;20021;-76
2023/10/23 12:40:08;;;;;;;6.75;2.13;;;13.60;99.90;;;;;;5036409;28;20037;-76
2023/10/23 12:42:37;;;;;;;2.65;1.05;;;13.70;99.90;;;;;;5038217;28;20021;-75
2023/10/23 12:45:03;;;;;;;7.82;1.80;;;13.70;99.90;;;;;;5037523;28;20122;-76
2023/10/23 12:47:29;;;;;;;2.28;0.90;;;13.80;99.90;;;;;;5037726;28;20020;-76
2023/10/23 12:49:57;;;;;;;4.20;1.48;;;13.90;99.90;;;;;;5052073;28;20022;-77
2023/10/23 12:52:26;;;;;;;6.15;1.10;;;13.80;99.90;;;;;;5034084;28;20029;-76
2023/10/23 12:54:52;;;;;;;2.58;1.30;;;13.90;99.90;;;;;;5032609;28;20037;-76
2023/10/23 12:57:17;;;;;;;4.30;1.10;;;13.90;99.90;;;;;;5033359;28;20033;-76
2023/10/23 12:59:43;;;;;;;4.20;0.93;;;13.70;99.90;;;;;;5035039;28;20045;-76